Flugplatz Gunzenhausen-Reutberg

Für EDMH sind keine METAR/TAF Berichte vorhanden.
Es werden die Flugwettermeldungen vom Flugplatz Ansbach Army Heliport in 24 km Entfernung angezeigt.

Bericht für ETEB

vom 25.10. um 15:56 UTC

Wind 4 kt aus 140°

Sichtweite 10 km oder mehr

keine Wolken

Temperatur 11.5°C

Taupunkt 5.6°C

Luftfeuchtigkeit 67%

Luftdruck 1020 hPa

ETEB 251556Z AUTO 14004KT 9999 CLR 12/06 A3012 RMK AO2 SLP224 T01150056 $

Prognose für ETEB

vom 25.10. um 09:00 UTC

Zwischen 09:00 UTC und 02:00 UTC

Wind 6 kt aus 170°

Sichtweite 10 km oder mehr

gering bewölkt in 20000 ft


Am 26.10. zwischen 02:00 und 03:00 UTC übergehend zu

Wind 6 kt aus 170°

Sichtweite 6000 m

feuchter Dunst

aufgebrochene Bewölkung in 3000 ft


Am 26.10. zwischen 07:00 und 08:00 UTC übergehend zu

Wind 6 kt aus 270°

Sichtweite 5000 m

schwacher Regenschauer

gering bewölkt in 600 ft

aufgebrochene Bewölkung in 1000 ft

aufgebrochene Bewölkung in 1500 ft


Am 26.10. zwischen 14:00 und 15:00 UTC übergehend zu

Wind 12 kt aus 210°

Sichtweite 10 km oder mehr

keine signifikanten Wettererscheinungen

aufgebrochene Bewölkung in 1500 ft

aufgebrochene Bewölkung in 2500 ft

TAF ETEB 250900Z 2509/2615 17006KT 9999 FEW200 QNH3019INS BECMG 2602/2603 17006KT 6000 BR BKN030 QNH3009INS BECMG 2607/2608 27006KT 5000 -SHRA FEW006 BKN010 BKN015 QNH3013INS BECMG 2614/2615 21012KT 9999 NSW BKN015 BKN025 QNH3017INS TX12/2515Z TN09/2606Z
Impressum